Time;durP1;ratioP1;P1;durP2;ratioP2;P2;SDS_P1;SDS_P2;PMS_P1;PMS_P2;Temp;Humidity;BMP_temperature;BMP_pressure;BME280_temperature;BME280_humidity;BME280_pressure;Samples;Min_cycle;Max_cycle;Signal;HPM_P1;HPM_P2
2022/08/24 00:01:18;;;;;;;5.20;2.70;;;;;;;;;;5096845;28;20029;-81
2022/08/24 00:03:45;;;;;;;6.82;2.60;;;;;;;;;;5080736;28;20112;-81
2022/08/24 00:06:18;;;;;;;4.57;2.55;;;20.80;93.40;;;;;;5089692;28;20107;-80
2022/08/24 00:08:46;;;;;;;5.40;2.65;;;20.80;93.50;;;;;;5080304;28;20017;-81
2022/08/24 00:11:12;;;;;;;6.38;2.92;;;;;;;;;;5075785;28;20491;-81
2022/08/24 00:13:38;;;;;;;4.35;2.63;;;;;;;;;;5066996;28;20075;-80
2022/08/24 00:16:07;;;;;;;6.28;2.60;;;20.70;93.80;;;;;;5056589;28;20060;-81
2022/08/24 00:18:33;;;;;;;5.93;2.22;;;;;;;;;;5069163;28;20058;-79
2022/08/24 00:23:28;;;;;;;5.63;2.60;;;;;;;;;;5041238;28;20061;-82
2022/08/24 00:25:57;;;;;;;3.97;2.40;;;20.60;94.40;;;;;;5044216;28;20052;-82
2022/08/24 00:28:23;;;;;;;6.68;2.50;;;;;;;;;;5030877;28;20025;-85
2022/08/24 00:30:50;;;;;;;4.22;2.38;;;;;;;;;;5042654;28;20021;-80
2022/08/24 00:33:16;;;;;;;5.60;2.97;;;;;;;;;;5007258;28;20030;-80
2022/08/24 00:35:42;;;;;;;4.65;2.55;;;;;;;;;;5035207;28;20034;-82
2022/08/24 00:38:08;;;;;;;5.28;2.58;;;;;;;;;;5037139;28;20116;-81
2022/08/24 00:40:38;;;;;;;4.63;2.60;;;20.50;95.40;;;;;;5024790;28;20026;-81
2022/08/24 00:43:07;;;;;;;6.72;2.60;;;20.40;95.50;;;;;;5021208;28;20026;-82
2022/08/24 00:46:11;;;;;;;4.72;2.20;;;20.30;95.80;;;;;;5008094;28;20022;-82
2022/08/24 00:48:40;;;;;;;4.82;2.47;;;20.40;96.10;;;;;;5023212;28;20087;-80
2022/08/24 00:51:19;;;;;;;4.30;2.30;;;20.40;96.20;;;;;;5032177;28;20097;-82
2022/08/24 00:54:08;;;;;;;7.93;2.80;;;20.40;96.40;;;;;;5023239;28;20032;-82
2022/08/24 00:56:39;;;;;;;5.97;2.87;;;20.40;96.50;;;;;;5023082;28;20036;-82
2022/08/24 00:59:13;;;;;;;4.13;2.25;;;20.40;96.40;;;;;;5020973;28;20275;-81
2022/08/24 01:01:40;;;;;;;4.55;2.58;;;;;;;;;;5019049;28;20108;-81
2022/08/24 01:04:09;;;;;;;4.25;2.45;;;20.30;96.70;;;;;;5033699;28;20026;-82
2022/08/24 01:06:35;;;;;;;6.90;2.95;;;20.30;96.80;;;;;;5016651;28;20030;-81
2022/08/24 01:09:01;;;;;;;4.38;2.47;;;20.30;96.90;;;;;;5016356;28;20079;-82
2022/08/24 01:11:29;;;;;;;8.55;3.03;;;20.20;97.00;;;;;;5025587;28;20048;-80
2022/08/24 01:13:55;;;;;;;5.53;2.80;;;20.20;97.20;;;;;;5025879;28;20049;-83
2022/08/24 01:19:28;;;;;;;8.02;3.00;;;20.20;97.30;;;;;;4996327;28;20018;-86
2022/08/24 01:22:21;;;;;;;6.05;2.58;;;20.20;97.30;;;;;;5010588;28;20023;-85
2022/08/24 01:24:47;;;;;;;6.80;2.95;;;20.10;97.60;;;;;;5034758;28;20033;-82
2022/08/24 01:27:14;;;;;;;5.63;2.50;;;;;;;;;;5029485;28;20395;-82
2022/08/24 01:29:42;;;;;;;4.65;2.58;;;20.10;97.90;;;;;;5044812;28;20085;-83
2022/08/24 01:32:09;;;;;;;5.53;2.90;;;20.00;98.10;;;;;;5026444;28;20034;-83
2022/08/24 01:34:35;;;;;;;5.72;2.78;;;20.00;98.30;;;;;;5027713;28;20017;-82
2022/08/24 01:37:02;;;;;;;4.80;2.72;;;;;;;;;;5012418;28;20030;-82
2022/08/24 01:39:28;;;;;;;6.43;2.60;;;;;;;;;;5023281;28;20526;-83
2022/08/24 01:41:54;;;;;;;5.00;2.42;;;;;;;;;;5014492;28;20093;-83
2022/08/24 01:44:23;;;;;;;4.68;2.75;;;19.90;98.80;;;;;;5027757;28;20476;-82
2022/08/24 01:46:53;;;;;;;6.68;2.60;;;19.90;98.90;;;;;;5025979;28;20133;-83
2022/08/24 01:49:22;;;;;;;7.45;2.40;;;19.90;99.10;;;;;;5019023;28;20034;-81
2022/08/24 01:51:48;;;;;;;4.97;2.75;;;;;;;;;;5020148;28;20034;-84
2022/08/24 01:54:14;;;;;;;6.95;2.63;;;19.80;99.50;;;;;;5019426;28;20025;-84
2022/08/24 01:57:02;;;;;;;7.07;2.92;;;;;;;;;;5009181;28;20044;-84
2022/08/24 01:59:29;;;;;;;4.63;2.67;;;;;;;;;;5034074;28;20150;-80
2022/08/24 02:02:04;;;;;;;6.97;2.78;;;19.70;99.90;;;;;;5033406;28;20044;-81
2022/08/24 02:04:35;;;;;;;4.70;2.60;;;19.70;99.90;;;;;;5018693;28;20034;-83
2022/08/24 02:07:01;;;;;;;5.20;2.75;;;;;;;;;;5021245;28;20045;-82
2022/08/24 02:09:27;;;;;;;4.72;2.75;;;19.60;99.90;;;;;;5011863;28;20030;-84
2022/08/24 02:11:54;;;;;;;5.53;2.83;;;;;;;;;;5032375;28;20104;-83
2022/08/24 02:14:20;;;;;;;6.32;3.00;;;;;;;;;;5032737;28;20084;-83
2022/08/24 02:16:46;;;;;;;4.75;2.85;;;19.60;99.90;;;;;;5024631;28;20050;-83
2022/08/24 02:19:12;;;;;;;6.93;2.75;;;19.50;99.90;;;;;;5019664;28;20036;-82
2022/08/24 02:21:38;;;;;;;4.55;2.67;;;;;;;;;;5021724;28;20507;-84
2022/08/24 02:24:04;;;;;;;5.50;2.75;;;19.60;99.90;;;;;;5019315;28;20085;-83
2022/08/24 02:26:30;;;;;;;4.70;2.88;;;19.50;99.90;;;;;;5024049;28;20554;-83
2022/08/24 02:28:56;;;;;;;4.65;2.72;;;19.50;99.90;;;;;;5023552;28;20029;-83
2022/08/24 02:31:22;;;;;;;4.45;2.88;;;19.40;99.90;;;;;;5013453;28;20041;-83
2022/08/24 02:33:47;;;;;;;6.13;2.78;;;19.40;99.90;;;;;;5014786;28;20025;-84
2022/08/24 02:36:14;;;;;;;7.60;2.72;;;19.40;99.90;;;;;;5011650;28;20037;-82
2022/08/24 02:38:41;;;;;;;5.68;2.95;;;;;;;;;;5031778;28;20025;-84
2022/08/24 02:41:07;;;;;;;4.13;2.80;;;;;;;;;;5029563;28;20014;-82
2022/08/24 02:43:33;;;;;;;5.35;2.63;;;19.40;99.90;;;;;;5003491;28;20043;-84
2022/08/24 02:45:59;;;;;;;6.80;2.75;;;;;;;;;;5025754;28;20041;-83
2022/08/24 02:48:25;;;;;;;7.32;2.83;;;19.40;99.90;;;;;;5010467;28;20038;-84
2022/08/24 02:50:51;;;;;;;5.60;2.63;;;19.30;99.90;;;;;;5046099;28;20021;-82
2022/08/24 02:53:19;;;;;;;6.32;2.95;;;19.30;99.90;;;;;;5032487;28;20479;-81
2022/08/24 02:55:46;;;;;;;6.28;2.88;;;19.30;99.90;;;;;;5046644;28;20044;-83
2022/08/24 02:58:14;;;;;;;9.02;3.45;;;19.30;99.90;;;;;;5043947;28;20060;-83
2022/08/24 03:00:40;;;;;;;4.82;3.03;;;19.30;99.90;;;;;;5027083;28;20029;-82
2022/08/24 03:03:07;;;;;;;5.13;2.70;;;;;;;;;;5042459;28;20028;-84
2022/08/24 03:05:33;;;;;;;5.05;3.22;;;;;;;;;;5010077;28;20125;-81
2022/08/24 03:07:58;;;;;;;5.22;3.08;;;19.20;99.90;;;;;;5007416;28;20030;-82
2022/08/24 03:10:24;;;;;;;5.13;2.55;;;19.20;99.90;;;;;;5031064;28;20026;-82
2022/08/24 03:12:51;;;;;;;5.25;3.00;;;19.20;99.90;;;;;;5037588;28;20026;-85
2022/08/24 03:15:18;;;;;;;5.15;2.72;;;19.20;99.90;;;;;;5037792;28;20026;-82
2022/08/24 03:17:46;;;;;;;5.55;2.83;;;19.20;99.90;;;;;;5036592;28;20487;-82
2022/08/24 03:20:16;;;;;;;7.47;3.67;;;19.20;99.90;;;;;;5023222;28;20021;-81
2022/08/24 03:22:41;;;;;;;7.13;3.10;;;19.20;99.90;;;;;;5014053;28;20030;-84
2022/08/24 03:25:08;;;;;;;7.80;3.30;;;19.10;99.90;;;;;;5019197;28;20047;-86
2022/08/24 03:27:34;;;;;;;4.30;2.70;;;19.10;99.90;;;;;;5017751;28;20522;-82
2022/08/24 03:30:01;;;;;;;7.10;3.10;;;;;;;;;;5015583;28;20030;-82
2022/08/24 03:32:27;;;;;;;5.50;2.97;;;19.00;99.90;;;;;;5103904;22;20428;-83
2022/08/24 03:34:53;;;;;;;5.53;2.90;;;18.90;99.90;;;;;;5099377;28;20542;-82
2022/08/24 03:37:19;;;;;;;6.80;3.33;;;18.90;99.90;;;;;;5083068;28;20042;-83
2022/08/24 03:39:46;;;;;;;8.48;3.33;;;18.80;99.90;;;;;;5075201;28;20020;-81
2022/08/24 03:42:13;;;;;;;5.18;3.10;;;18.80;99.90;;;;;;5080254;28;20024;-81
2022/08/24 03:44:40;;;;;;;5.78;3.65;;;18.80;99.90;;;;;;5061514;28;20107;-83
2022/08/24 03:47:08;;;;;;;6.70;3.55;;;18.80;99.90;;;;;;5061239;28;20060;-81
2022/08/24 03:49:34;;;;;;;6.80;3.97;;;18.80;99.90;;;;;;5062597;28;20171;-84
2022/08/24 03:52:00;;;;;;;7.95;3.60;;;;;;;;;;5063520;28;20049;-81
2022/08/24 03:54:26;;;;;;;5.80;3.78;;;18.80;99.90;;;;;;5062758;28;20040;-84
2022/08/24 03:56:52;;;;;;;6.38;3.55;;;18.80;99.90;;;;;;5072544;28;20024;-84
2022/08/24 03:59:17;;;;;;;7.00;3.25;;;18.80;99.90;;;;;;5067972;28;20028;-83
2022/08/24 04:01:43;;;;;;;5.75;3.17;;;18.80;99.90;;;;;;5065390;28;20049;-82
2022/08/24 04:04:09;;;;;;;6.38;3.08;;;18.80;99.90;;;;;;5068666;28;20481;-84
2022/08/24 04:06:35;;;;;;;7.00;2.90;;;18.80;99.90;;;;;;5061686;28;20032;-83
2022/08/24 04:09:02;;;;;;;9.07;3.47;;;18.80;99.90;;;;;;5078020;28;20492;-82
2022/08/24 04:11:29;;;;;;;5.32;2.78;;;18.80;99.90;;;;;;5061568;28;20330;-84
2022/08/24 04:13:56;;;;;;;6.10;2.90;;;18.70;99.90;;;;;;5062305;28;20466;-84
2022/08/24 04:16:23;;;;;;;6.68;2.95;;;18.70;99.90;;;;;;5061762;28;20028;-84
2022/08/24 04:18:49;;;;;;;8.65;3.40;;;;;;;;;;5062209;28;20051;-82
2022/08/24 04:21:21;;;;;;;5.72;2.95;;;18.70;99.90;;;;;;5078657;28;20028;-83
2022/08/24 04:23:48;;;;;;;8.32;3.03;;;18.70;99.90;;;;;;5062986;28;20048;-82
2022/08/24 04:26:15;;;;;;;6.10;3.33;;;18.60;99.90;;;;;;5063737;28;20306;-83
2022/08/24 04:28:41;;;;;;;8.93;3.22;;;18.70;99.90;;;;;;5058581;28;20524;-83
2022/08/24 04:31:17;;;;;;;5.13;2.95;;;18.70;99.90;;;;;;5061586;28;20025;-83
2022/08/24 04:33:45;;;;;;;7.03;3.20;;;18.60;99.90;;;;;;5079194;28;20055;-83
2022/08/24 04:36:12;;;;;;;5.95;3.42;;;;;;;;;;5079271;28;20064;-82
2022/08/24 04:38:38;;;;;;;6.53;3.30;;;18.60;99.90;;;;;;5062160;28;20071;-84
2022/08/24 04:41:06;;;;;;;9.30;3.45;;;18.50;99.90;;;;;;5062599;28;20027;-85
2022/08/24 04:43:31;;;;;;;6.35;3.65;;;18.60;99.90;;;;;;5063608;28;20029;-83
2022/08/24 04:45:58;;;;;;;5.13;3.25;;;18.60;99.90;;;;;;5062981;28;20016;-84
2022/08/24 04:48:24;;;;;;;6.45;3.70;;;;;;;;;;5063356;28;20020;-83
2022/08/24 04:50:49;;;;;;;7.22;3.65;;;18.60;99.90;;;;;;5071421;28;20016;-81
2022/08/24 04:53:15;;;;;;;6.15;3.60;;;18.60;99.90;;;;;;5100338;28;20016;-81
2022/08/24 04:55:49;;;;;;;8.63;4.03;;;18.60;99.90;;;;;;5082121;28;20088;-82
2022/08/24 04:58:16;;;;;;;5.43;3.38;;;18.60;99.90;;;;;;5065857;28;20025;-82
2022/08/24 05:00:43;;;;;;;6.85;4.13;;;18.70;99.90;;;;;;5074344;28;20054;-82
2022/08/24 05:03:10;;;;;;;10.00;4.00;;;18.70;99.90;;;;;;5080234;28;20183;-83
2022/08/24 05:05:44;;;;;;;8.00;4.07;;;18.70;99.90;;;;;;5058587;28;20024;-83
2022/08/24 05:08:11;;;;;;;6.60;4.03;;;18.70;99.90;;;;;;5073017;28;20511;-86
2022/08/24 05:10:41;;;;;;;7.65;4.43;;;18.80;99.90;;;;;;5075516;28;20024;-79
2022/08/24 05:13:08;;;;;;;9.35;4.25;;;18.90;99.90;;;;;;5079365;28;20151;-82
2022/08/24 05:15:34;;;;;;;7.60;4.35;;;18.90;99.90;;;;;;5073085;28;20024;-83
2022/08/24 05:18:01;;;;;;;5.72;4.13;;;18.70;99.90;;;;;;5063001;28;20485;-85
2022/08/24 05:20:28;;;;;;;8.27;4.45;;;18.70;99.90;;;;;;5056963;28;20028;-82
2022/08/24 05:22:54;;;;;;;7.15;4.30;;;18.80;99.90;;;;;;5060459;28;20040;-82
2022/08/24 05:25:20;;;;;;;8.23;4.20;;;18.90;99.90;;;;;;5059732;28;20021;-84
2022/08/24 05:27:47;;;;;;;6.63;4.13;;;;;;;;;;5059828;28;20025;-83
2022/08/24 05:30:14;;;;;;;7.07;4.68;;;19.00;99.90;;;;;;5078075;28;20133;-83
2022/08/24 05:32:40;;;;;;;8.02;4.40;;;19.10;99.90;;;;;;5064201;28;20710;-83
2022/08/24 05:35:06;;;;;;;9.60;4.95;;;19.00;99.90;;;;;;5078167;28;20060;-82
2022/08/24 05:37:37;;;;;;;11.45;4.90;;;19.00;99.90;;;;;;5056423;28;20077;-83
2022/08/24 05:40:05;;;;;;;9.38;4.18;;;16.40;99.90;;;;;;5060176;28;20024;-85
2022/08/24 05:42:31;;;;;;;8.48;4.38;;;;;;;;;;5077181;28;20036;-84
2022/08/24 05:44:57;;;;;;;8.25;4.53;;;19.20;99.90;;;;;;5062514;28;20021;-82
2022/08/24 05:47:24;;;;;;;9.20;4.88;;;;;;;;;;5077737;28;20020;-82
2022/08/24 05:49:53;;;;;;;9.32;4.57;;;;;;;;;;5065003;28;20469;-79
2022/08/24 05:52:21;;;;;;;7.47;4.00;;;19.50;99.90;;;;;;5082097;28;20074;-83
2022/08/24 05:54:56;;;;;;;7.85;4.03;;;19.50;99.90;;;;;;5067698;28;20033;-83
2022/08/24 05:57:23;;;;;;;7.55;4.13;;;19.60;99.90;;;;;;5054794;28;20032;-83
2022/08/24 05:59:49;;;;;;;7.35;3.95;;;;;;;;;;5068369;28;20047;-82
2022/08/24 06:02:16;;;;;;;7.10;4.20;;;19.80;99.90;;;;;;5077473;28;20020;-83
2022/08/24 06:04:43;;;;;;;7.95;4.03;;;;;;;;;;5069650;28;20032;-82
2022/08/24 06:07:10;;;;;;;6.88;4.13;;;19.80;99.90;;;;;;5076755;28;20492;-81
2022/08/24 06:09:36;;;;;;;7.88;4.25;;;;;;;;;;5077986;28;20104;-82
2022/08/24 06:12:02;;;;;;;10.93;4.60;;;20.10;99.90;;;;;;5072782;28;20032;-83
2022/08/24 06:14:28;;;;;;;12.02;4.60;;;;;;;;;;5061991;28;20028;-81
2022/08/24 06:16:54;;;;;;;8.32;4.25;;;;;;;;;;5063139;28;20036;-83
2022/08/24 06:19:20;;;;;;;9.68;4.05;;;;;;;;;;5082856;28;20397;-80
2022/08/24 06:21:49;;;;;;;8.50;4.43;;;20.40;99.90;;;;;;5073781;28;20022;-81
2022/08/24 06:24:15;;;;;;;9.88;4.32;;;20.50;99.90;;;;;;5062431;28;20103;-83
2022/08/24 06:29:27;;;;;;;10.05;4.22;;;;;;;;;;5080275;28;20039;-83
2022/08/24 06:31:54;;;;;;;8.10;3.78;;;;;;;;;;5068128;28;20127;-82
2022/08/24 06:34:21;;;;;;;12.15;4.15;;;20.70;99.90;;;;;;5061124;28;20028;-82
2022/08/24 06:36:47;;;;;;;11.05;4.80;;;;;;;;;;5063311;28;20036;-82
2022/08/24 06:39:14;;;;;;;7.82;4.13;;;;;;;;;;5081810;28;20099;-82
2022/08/24 06:41:40;;;;;;;8.13;4.22;;;21.00;99.70;;;;;;5058535;28;20025;-80
2022/08/24 06:44:07;;;;;;;8.57;4.07;;;20.90;99.60;;;;;;5073048;28;20016;-84
2022/08/24 06:46:35;;;;;;;9.10;4.13;;;;;;;;;;5074968;28;20035;-81
2022/08/24 06:49:01;;;;;;;9.13;3.70;;;;;;;;;;5066177;28;20025;-83
2022/08/24 06:51:27;;;;;;;11.23;4.13;;;21.30;99.10;;;;;;5067916;28;20412;-84
2022/08/24 06:53:57;;;;;;;7.93;3.75;;;21.40;98.20;;;;;;5053581;28;20091;-83
2022/08/24 06:56:23;;;;;;;6.82;3.50;;;21.50;98.20;;;;;;5065132;28;20035;-84
2022/08/24 06:58:49;;;;;;;8.20;3.60;;;;;;;;;;5077553;28;20025;-83
2022/08/24 07:01:21;;;;;;;6.93;3.25;;;21.90;97.40;;;;;;5073546;28;20054;-83
2022/08/24 07:03:46;;;;;;;5.38;3.17;;;21.90;97.20;;;;;;5062295;28;20025;-82
2022/08/24 07:06:13;;;;;;;5.28;3.20;;;22.20;96.40;;;;;;5060368;28;20035;-80
2022/08/24 07:08:43;;;;;;;6.93;3.20;;;22.40;96.10;;;;;;5077649;28;20088;-84
2022/08/24 07:11:13;;;;;;;6.15;3.65;;;22.30;96.20;;;;;;5078685;28;20029;-82
2022/08/24 07:13:38;;;;;;;;;;;22.50;96.10;;;;;;5063600;28;20038;-84
2022/08/24 07:16:05;;;;;;;9.10;3.60;;;22.70;95.40;;;;;;5063320;28;19999;-84
2022/08/24 07:18:31;;;;;;;7.40;3.35;;;;;;;;;;5064244;28;20025;-83
2022/08/24 07:21:01;;;;;;;4.45;2.95;;;23.10;94.40;;;;;;5081827;28;20031;-84
2022/08/24 07:23:27;;;;;;;5.43;2.92;;;;;;;;;;5064527;28;20036;-83
2022/08/24 07:25:53;;;;;;;5.13;3.20;;;;;;;;;;5080343;28;20108;-83
2022/08/24 07:28:20;;;;;;;7.82;3.17;;;;;;;;;;5073095;28;20027;-84
2022/08/24 07:30:46;;;;;;;7.35;2.70;;;;;;;;;;5086701;28;20020;-83
2022/08/24 07:33:12;;;;;;;7.45;3.78;;;;;;;;;;5078777;28;20066;-84
2022/08/24 07:35:38;;;;;;;5.40;2.92;;;23.80;92.60;;;;;;5058874;28;20539;-84
2022/08/24 07:38:06;;;;;;;9.80;3.30;;;23.80;92.60;;;;;;5079076;28;20401;-83
2022/08/24 07:40:34;;;;;;;6.15;3.00;;;24.00;92.10;;;;;;5055576;28;20043;-81
2022/08/24 07:43:00;;;;;;;5.63;2.95;;;;;;;;;;5061150;28;20023;-83
2022/08/24 07:45:27;;;;;;;8.02;3.25;;;24.20;91.50;;;;;;5061306;28;20119;-83
2022/08/24 07:47:54;;;;;;;5.53;3.03;;;;;;;;;;5061978;28;20028;-81
2022/08/24 07:50:20;;;;;;;5.40;2.92;;;;;;;;;;5062037;28;20031;-84
2022/08/24 07:52:46;;;;;;;8.05;3.28;;;;;;;;;;5068124;28;20061;-84
2022/08/24 07:55:13;;;;;;;4.50;2.92;;;24.50;90.90;;;;;;5061310;28;20044;-83
2022/08/24 07:57:39;;;;;;;12.75;3.10;;;;;;;;;;5046992;28;20053;-83
2022/08/24 08:00:11;;;;;;;5.97;2.80;;;24.80;90.50;;;;;;5084717;28;20123;-83
2022/08/24 08:02:37;;;;;;;5.30;2.90;;;25.10;89.60;;;;;;5067893;28;20036;-84
2022/08/24 08:05:04;;;;;;;4.53;3.15;;;25.20;88.90;;;;;;5063590;28;20055;-83
2022/08/24 08:07:30;;;;;;;5.53;2.63;;;;;;;;;;5056422;28;20070;-85
2022/08/24 08:09:59;;;;;;;5.20;3.00;;;;;;;;;;5065736;28;20107;-85
2022/08/24 08:12:25;;;;;;;6.22;2.95;;;;;;;;;;5064643;28;20017;-83
2022/08/24 08:14:51;;;;;;;4.95;2.88;;;;;;;;;;5063957;28;20024;-85
2022/08/24 08:17:17;;;;;;;6.35;3.78;;;;;;;;;;5068194;28;20024;-84
2022/08/24 08:19:43;;;;;;;7.18;4.70;;;;;;;;;;5053879;28;20068;-84
2022/08/24 08:24:53;;;;;;;7.88;3.15;;;26.00;86.50;;;;;;5078970;28;20043;-82
2022/08/24 08:27:20;;;;;;;6.93;3.60;;;26.00;86.30;;;;;;5061739;28;20041;-84
2022/08/24 08:29:47;;;;;;;6.38;2.75;;;26.20;86.40;;;;;;5068391;28;20032;-83
2022/08/24 08:32:16;;;;;;;4.13;2.65;;;;;;;;;;5066808;28;20028;-84
2022/08/24 08:34:43;;;;;;;7.55;3.75;;;26.50;84.80;;;;;;5082312;28;20123;-82
2022/08/24 08:37:09;;;;;;;5.30;3.50;;;24.50;84.10;;;;;;5066005;28;20032;-83
2022/08/24 08:39:35;;;;;;;5.45;2.85;;;;;;;;;;5068261;28;20086;-82
2022/08/24 08:43:03;;;;;;;5.18;3.20;;;26.70;83.70;;;;;;5071048;28;20032;-82
2022/08/24 08:45:34;;;;;;;6.47;2.58;;;27.00;82.10;;;;;;4985188;28;20026;-84
2022/08/24 08:48:09;;;;;;;8.38;2.90;;;27.00;82.40;;;;;;4985477;28;20057;-84
2022/08/24 08:50:57;;;;;;;5.15;3.20;;;27.10;82.00;;;;;;5028762;28;20037;-83
2022/08/24 08:53:53;;;;;;;4.82;3.05;;;27.20;80.60;;;;;;5080644;28;20060;-82
2022/08/24 08:56:33;;;;;;;4.75;2.63;;;27.30;80.00;;;;;;5064009;28;20078;-83
2022/08/24 08:59:12;;;;;;;7.45;3.40;;;27.30;80.40;;;;;;5061861;28;20601;-83
2022/08/24 09:02:14;;;;;;;5.70;2.75;;;27.50;80.00;;;;;;5054032;28;20024;-83
2022/08/24 09:04:43;;;;;;;4.45;2.65;;;;;;;;;;5056244;28;20197;-83
2022/08/24 09:07:08;;;;;;;4.97;2.58;;;28.00;78.70;;;;;;5053102;28;20028;-84
2022/08/24 09:09:46;;;;;;;5.90;2.80;;;28.00;78.60;;;;;;5059013;28;20408;-82
2022/08/24 09:12:28;;;;;;;5.35;2.35;;;28.10;77.10;;;;;;5062625;28;20093;-82
2022/08/24 09:15:28;;;;;;;5.65;2.80;;;28.20;76.10;;;;;;5065808;28;20368;-81
2022/08/24 09:18:03;;;;;;;7.32;3.13;;;28.30;77.00;;;;;;5051945;28;20088;-81
2022/08/24 09:20:48;;;;;;;6.07;2.40;;;28.60;74.30;;;;;;5050686;28;20028;-81
2022/08/24 09:23:45;;;;;;;3.90;2.50;;;28.70;74.80;;;;;;5052793;28;20027;-83
2022/08/24 09:26:25;;;;;;;4.75;2.47;;;28.70;74.40;;;;;;5066076;28;20027;-81
2022/08/24 09:28:57;;;;;;;4.97;2.50;;;28.80;73.80;;;;;;5067638;28;20432;-84
2022/08/24 09:31:36;;;;;;;3.90;2.45;;;28.80;73.20;;;;;;5051363;28;20040;-81
2022/08/24 09:34:30;;;;;;;6.13;3.00;;;29.00;72.50;;;;;;5058215;28;20029;-80
2022/08/24 09:37:38;;;;;;;5.40;2.65;;;29.00;72.70;;;;;;5078734;28;20029;-81
2022/08/24 09:40:27;;;;;;;3.63;2.40;;;29.20;73.00;;;;;;5070726;28;20024;-82
2022/08/24 09:42:58;;;;;;;4.15;2.70;;;29.60;70.00;;;;;;5068211;28;20021;-84
2022/08/24 09:45:39;;;;;;;4.28;2.60;;;29.60;69.30;;;;;;5047449;28;20204;-83
2022/08/24 09:48:39;;;;;;;4.10;2.47;;;29.70;69.30;;;;;;5059613;28;20108;-81
2022/08/24 09:51:40;;;;;;;5.60;2.67;;;29.80;68.60;;;;;;5064867;28;20180;-81
2022/08/24 09:54:44;;;;;;;5.05;2.38;;;30.00;65.90;;;;;;5054860;28;20033;-82
2022/08/24 09:57:34;;;;;;;3.85;2.47;;;30.00;66.20;;;;;;5068448;28;20557;-81
2022/08/24 10:00:15;;;;;;;5.35;2.05;;;30.10;64.10;;;;;;5067413;28;20151;-82
2022/08/24 10:02:59;;;;;;;5.32;2.10;;;30.20;64.40;;;;;;5059747;28;20092;-81
2022/08/24 10:06:03;;;;;;;3.80;2.20;;;30.30;62.80;;;;;;5070361;28;20107;-81
2022/08/24 10:08:54;;;;;;;6.80;2.00;;;30.40;63.30;;;;;;5054340;28;20473;-83
2022/08/24 10:11:53;;;;;;;3.53;2.20;;;30.40;62.50;;;;;;5056525;28;20033;-82
2022/08/24 10:14:43;;;;;;;4.70;2.17;;;30.70;62.10;;;;;;5071275;28;20025;-80
2022/08/24 10:17:20;;;;;;;4.50;2.22;;;30.70;62.60;;;;;;5057989;28;20089;-81
2022/08/24 10:20:22;;;;;;;8.02;2.28;;;31.00;60.00;;;;;;5078776;28;20192;-82
2022/08/24 10:23:26;;;;;;;4.40;1.98;;;30.90;60.40;;;;;;5068417;28;20119;-80
2022/08/24 10:26:13;;;;;;;5.72;1.98;;;31.10;59.20;;;;;;5075329;28;20025;-82
2022/08/24 10:29:01;;;;;;;4.97;2.10;;;31.10;58.10;;;;;;5074580;28;20021;-82
2022/08/24 10:31:59;;;;;;;4.60;1.90;;;31.10;58.50;;;;;;5059187;28;20028;-82
2022/08/24 10:34:37;;;;;;;3.58;2.13;;;31.00;57.50;;;;;;5051794;28;20040;-81
2022/08/24 10:37:36;;;;;;;3.95;1.80;;;31.00;57.90;;;;;;5055959;28;20031;-81
2022/08/24 10:40:13;;;;;;;4.57;2.13;;;31.20;58.50;;;;;;5070164;28;20027;-83
2022/08/24 10:45:51;;;;;;;5.95;2.28;;;31.50;56.60;;;;;;5071805;28;20027;-80
2022/08/24 10:48:28;;;;;;;3.60;1.95;;;31.50;57.10;;;;;;5049536;28;20036;-80
2022/08/24 10:50:57;;;;;;;3.78;2.28;;;31.50;56.60;;;;;;5061267;28;20051;-79
2022/08/24 10:53:31;;;;;;;4.85;2.20;;;31.40;56.50;;;;;;5047735;28;20044;-81
2022/08/24 10:56:05;;;;;;;5.80;2.00;;;31.50;56.10;;;;;;5055729;28;20024;-78
2022/08/24 10:58:49;;;;;;;4.57;2.28;;;31.50;56.20;;;;;;5056675;28;20054;-80
2022/08/24 11:01:15;;;;;;;4.13;2.10;;;31.40;55.60;;;;;;5066014;28;20385;-79
2022/08/24 11:03:54;;;;;;;3.85;2.05;;;31.40;56.60;;;;;;5056086;28;20050;-80
2022/08/24 11:06:21;;;;;;;2.60;1.88;;;31.50;55.30;;;;;;5043648;28;20024;-79
2022/08/24 11:08:54;;;;;;;3.90;2.30;;;31.60;55.80;;;;;;5058610;28;20028;-80
2022/08/24 11:11:35;;;;;;;4.35;2.13;;;31.50;56.30;;;;;;5074554;28;20469;-79
2022/08/24 11:14:15;;;;;;;7.55;2.10;;;31.70;55.80;;;;;;5060352;28;20036;-78
2022/08/24 11:16:46;;;;;;;4.78;2.22;;;31.80;54.30;;;;;;5073552;28;20032;-80
2022/08/24 11:19:25;;;;;;;4.97;2.33;;;31.70;55.40;;;;;;5078514;28;20025;-80
2022/08/24 11:21:54;;;;;;;6.07;2.42;;;31.60;55.30;;;;;;5058391;28;20081;-79
2022/08/24 11:24:25;;;;;;;5.63;2.40;;;31.70;55.20;;;;;;5056323;28;20036;-80
2022/08/24 11:26:58;;;;;;;2.97;1.95;;;31.70;54.80;;;;;;5059852;28;20435;-81
2022/08/24 11:29:53;;;;;;;3.10;1.85;;;31.80;54.90;;;;;;5056374;28;20034;-79
2022/08/24 11:32:43;;;;;;;3.03;1.90;;;31.70;54.40;;;;;;5065563;28;20033;-80
2022/08/24 11:35:18;;;;;;;8.00;1.95;;;31.60;54.60;;;;;;5048972;28;20092;-80
2022/08/24 11:37:46;;;;;;;6.10;2.47;;;31.60;55.00;;;;;;5063076;28;20468;-79
2022/08/24 11:40:13;;;;;;;3.78;2.10;;;31.70;54.90;;;;;;5058785;28;20036;-79
2022/08/24 11:42:53;;;;;;;5.10;2.08;;;31.80;54.80;;;;;;5069643;28;20484;-79
2022/08/24 11:45:29;;;;;;;4.20;2.00;;;31.60;52.40;;;;;;5053685;28;21061;-79
2022/08/24 11:48:07;;;;;;;5.97;3.70;;;31.60;52.90;;;;;;5051067;28;20150;-80
2022/08/24 11:50:56;;;;;;;3.03;1.73;;;31.90;53.50;;;;;;5076284;28;20120;-80
2022/08/24 11:53:39;;;;;;;6.70;2.20;;;31.90;54.20;;;;;;5059954;28;20055;-80
2022/08/24 11:56:17;;;;;;;4.90;2.10;;;32.00;53.50;;;;;;5058160;28;20112;-81
2022/08/24 11:59:03;;;;;;;6.13;2.25;;;32.00;54.40;;;;;;5076509;28;20111;-81
2022/08/24 12:01:45;;;;;;;7.68;2.53;;;32.20;54.20;;;;;;5058557;28;20055;-80
2022/08/24 12:04:49;;;;;;;2.67;2.10;;;32.40;52.40;;;;;;5047343;28;20032;-80
2022/08/24 12:07:26;;;;;;;4.32;2.08;;;32.40;52.80;;;;;;5079617;28;20039;-81
2022/08/24 12:10:19;;;;;;;3.92;1.80;;;32.50;53.10;;;;;;5061811;28;20025;-80
2022/08/24 12:12:57;;;;;;;4.95;1.85;;;32.50;52.20;;;;;;5062748;28;20089;-82
2022/08/24 12:15:41;;;;;;;3.80;2.80;;;32.40;51.90;;;;;;5063341;28;20025;-80
2022/08/24 12:18:42;;;;;;;6.60;2.10;;;32.40;52.10;;;;;;5084474;28;20026;-78
2022/08/24 12:21:10;;;;;;;6.45;1.80;;;;;;;;;;5071840;22;20125;-90
2022/08/24 12:23:42;;;;;;;3.70;1.60;;;;;;;;;;5064298;28;20094;-91
2022/08/24 12:26:16;;;;;;;3.97;1.95;;;;;;;;;;5062072;28;20485;-89
2022/08/24 12:28:52;;;;;;;3.95;2.10;;;;;;;;;;5044703;28;20025;-89
2022/08/24 12:31:21;;;;;;;6.80;2.75;;;;;;;;;;5059977;28;20017;-88
2022/08/24 12:33:52;;;;;;;5.90;1.95;;;;;;;;;;5056288;28;20037;-90
2022/08/24 12:36:25;;;;;;;5.50;2.15;;;;;;;;;;5058923;28;20032;-88
2022/08/24 12:39:09;;;;;;;4.57;2.10;;;;;;;;;;5057074;28;20312;-89
2022/08/24 12:41:55;;;;;;;6.53;1.95;;;;;;;;;;5056335;28;20017;-90
2022/08/24 12:45:13;;;;;;;4.53;1.80;;;32.50;51.10;;;;;;5057012;28;20041;-88
2022/08/24 12:47:42;;;;;;;4.75;1.92;;;;;;;;;;5017686;28;20063;-87
2022/08/24 12:50:31;;;;;;;3.00;1.70;;;32.60;51.30;;;;;;5052525;28;20037;-87
2022/08/24 12:53:54;;;;;;;4.43;2.20;;;32.70;51.30;;;;;;5059581;28;20047;-89
2022/08/24 12:56:57;;;;;;;3.72;2.03;;;32.90;51.70;;;;;;4964136;28;20094;-85
2022/08/24 12:59:25;;;;;;;3.60;2.00;;;33.20;51.20;;;;;;4965505;28;20023;-87
2022/08/24 13:02:03;;;;;;;4.10;2.25;;;33.40;51.30;;;;;;5042136;28;20020;-87
2022/08/24 13:04:53;;;;;;;2.80;1.90;;;33.50;50.70;;;;;;5066880;28;20005;-86
2022/08/24 13:07:29;;;;;;;3.28;1.98;;;33.40;50.80;;;;;;5069660;28;20029;-88
2022/08/24 13:09:55;;;;;;;5.65;1.88;;;;;;;;;;5053294;28;20005;-89
2022/08/24 13:12:30;;;;;;;4.07;2.00;;;;;;;;;;5050784;28;20024;-88
2022/08/24 13:15:21;;;;;;;3.90;2.10;;;33.50;50.70;;;;;;5067604;28;20063;-89
2022/08/24 13:17:58;;;;;;;12.60;2.40;;;33.70;50.60;;;;;;5081076;22;20048;-82
2022/08/24 13:20:34;;;;;;;4.50;2.20;;;;;;;;;;5050784;28;20021;-81
2022/08/24 13:23:20;;;;;;;5.40;2.05;;;33.60;50.40;;;;;;5050359;28;20025;-78
2022/08/24 13:25:46;;;;;;;5.65;1.90;;;33.50;51.20;;;;;;5033130;28;20561;-81
2022/08/24 13:28:21;;;;;;;3.17;2.10;;;33.40;51.30;;;;;;5028017;28;20112;-83
2022/08/24 13:31:11;;;;;;;5.15;2.10;;;33.40;51.30;;;;;;5045468;28;20029;-81
2022/08/24 13:33:43;;;;;;;4.47;2.28;;;33.20;51.80;;;;;;5028106;28;20076;-81
2022/08/24 13:36:30;;;;;;;7.80;1.98;;;32.80;51.20;;;;;;5044971;28;20033;-79
2022/08/24 13:39:10;;;;;;;6.82;2.50;;;32.90;51.70;;;;;;5032184;28;20032;-80
2022/08/24 13:42:10;;;;;;;5.32;1.95;;;32.90;52.20;;;;;;5033430;28;20025;-83
2022/08/24 13:45:16;;;;;;;5.07;2.78;;;33.10;50.20;;;;;;5024989;28;20047;-80
2022/08/24 13:48:02;;;;;;;4.55;2.20;;;33.00;50.30;;;;;;5041743;28;20110;-79
2022/08/24 13:50:28;;;;;;;2.47;1.80;;;33.20;50.70;;;;;;5033543;28;20021;-79
2022/08/24 13:53:12;;;;;;;3.42;1.80;;;33.30;50.00;;;;;;5047801;28;20489;-80
2022/08/24 13:55:46;;;;;;;7.53;2.33;;;33.30;49.80;;;;;;5046625;28;20123;-80
2022/08/24 13:58:21;;;;;;;3.90;1.80;;;33.40;50.60;;;;;;5034323;28;20029;-79